Aquasurazo — D5NA6 — position and weather

sailwx.info

Track history (hours):
 
Tides and Currents Weather Stations Pressure Air Temp Water Temp Dewpoint Dewpoint Depression Visibility Wind Speed Wind Dir Waves Ship Positions

Aquasurazo

Last reported at 2017-Dec-17 23:44 UTC. Time now 2017-Dec-18 05:02 UTC.
Position N 09°33' W 075°50'.

Length 244 m; draft 8.6 m.

Type: Tanker. MMSI: 636017858.

Date/timePositionNaut miles runAvg speedWind from/ knotsBaromVisibWave heightAir tempDewpointWater temp
2017-Dec-17 23:44N 09°33' W 075°50'0 0.0
2017-Dec-17 23:20N 09°33' W 075°50'0 0.1
2017-Dec-17 22:56N 09°33' W 075°50'0 0.0
2017-Dec-17 22:26N 09°33' W 075°50'0 0.1
2017-Dec-17 21:53N 09°33' W 075°50'0 0.0
2017-Dec-17 21:26N 09°33' W 075°50'0 0.1
2017-Dec-17 20:53N 09°33' W 075°50'0 0.1
2017-Dec-17 20:29N 09°33' W 075°50'0 0.1
2017-Dec-17 19:59N 09°33' W 075°50'0 0.0
2017-Dec-17 08:29N 09°33' W 075°50'0 0.0
2017-Dec-17 07:59N 09°33' W 075°50'3 0.1
2017-Dec-15 13:11N 09°33' W 075°53'510.4
2017-Dec-15 12:42N 09°33' W 075°58'210.3
2017-Dec-15 12:30N 09°34' W 076°01'4 8.6
2017-Dec-15 12:00N 09°35' W 076°05'3 6.4
2017-Dec-15 11:30N 09°36' W 076°08'612.5
2017-Dec-15 11:00N 09°39' W 076°13'1413.1
2017-Dec-15 09:55N 09°45' W 076°27'513.0
2017-Dec-15 09:30N 09°47' W 076°31'  
2017-Dec-08 22:51N 09°38' W 079°45'613.4
2017-Dec-08 22:24N 09°33' W 079°48'513.8
2017-Dec-08 22:00N 09°29' W 079°52'611.4
2017-Dec-08 21:30N 09°24' W 079°55'5 9.1
2017-Dec-08 21:00N 09°19' W 079°55'3 5.5
2017-Dec-08 20:30N 09°17' W 079°55'0 0.5
2017-Dec-08 20:00N 09°16' W 079°55'0 0.5
2017-Dec-08 19:31N 09°16' W 079°55'0 0.2
2017-Dec-08 19:01N 09°16' W 079°55'0 0.3
2017-Dec-08 18:31N 09°16' W 079°55'1 1.0
2017-Dec-08 18:01N 09°15' W 079°55'1 2.6
2017-Dec-08 17:30N 09°14' W 079°55'3 5.0
2017-Dec-08 17:00N 09°12' W 079°54'6 7.5
2017-Dec-08 16:11N 09°09' W 079°49'  
Track history (hours):
 
Tides and Currents Weather Stations Pressure Air Temp Water Temp Dewpoint Dewpoint Depression Visibility Wind Speed Wind Dir Waves Ship Positions

Aquasurazo

Last reported at 2017-Dec-17 23:44 UTC. Time now 2017-Dec-18 05:02 UTC.
Position N 09°33' W 075°50'.

Length 244 m; draft 8.6 m.

Type: Tanker. MMSI: 636017858.

Date/timePositionNaut miles runAvg speedWind from/ knotsBaromVisibWave heightAir tempDewpointWater temp
2017-Dec-17 23:44N 09°33' W 075°50'0 0.0
2017-Dec-17 23:20N 09°33' W 075°50'0 0.1
2017-Dec-17 22:56N 09°33' W 075°50'0 0.0
2017-Dec-17 22:26N 09°33' W 075°50'0 0.1
2017-Dec-17 21:53N 09°33' W 075°50'0 0.0
2017-Dec-17 21:26N 09°33' W 075°50'0 0.1
2017-Dec-17 20:53N 09°33' W 075°50'0 0.1
2017-Dec-17 20:29N 09°33' W 075°50'0 0.1
2017-Dec-17 19:59N 09°33' W 075°50'0 0.0
2017-Dec-17 08:29N 09°33' W 075°50'0 0.0
2017-Dec-17 07:59N 09°33' W 075°50'3 0.1
2017-Dec-15 13:11N 09°33' W 075°53'510.4
2017-Dec-15 12:42N 09°33' W 075°58'210.3
2017-Dec-15 12:30N 09°34' W 076°01'4 8.6
2017-Dec-15 12:00N 09°35' W 076°05'3 6.4
2017-Dec-15 11:30N 09°36' W 076°08'612.5
2017-Dec-15 11:00N 09°39' W 076°13'1413.1
2017-Dec-15 09:55N 09°45' W 076°27'513.0
2017-Dec-15 09:30N 09°47' W 076°31'  
2017-Dec-08 22:51N 09°38' W 079°45'613.4
2017-Dec-08 22:24N 09°33' W 079°48'513.8
2017-Dec-08 22:00N 09°29' W 079°52'611.4
2017-Dec-08 21:30N 09°24' W 079°55'5 9.1
2017-Dec-08 21:00N 09°19' W 079°55'3 5.5
2017-Dec-08 20:30N 09°17' W 079°55'0 0.5
2017-Dec-08 20:00N 09°16' W 079°55'0 0.5
2017-Dec-08 19:31N 09°16' W 079°55'0 0.2
2017-Dec-08 19:01N 09°16' W 079°55'0 0.3
2017-Dec-08 18:31N 09°16' W 079°55'1 1.0
2017-Dec-08 18:01N 09°15' W 079°55'1 2.6
2017-Dec-08 17:30N 09°14' W 079°55'3 5.0
2017-Dec-08 17:00N 09°12' W 079°54'6 7.5
2017-Dec-08 16:11N 09°09' W 079°49'  

Dump ship's entire track history